sensor_id;sensor_type;location;lat;lon;timestamp;P1;durP1;ratioP1;P2;durP2;ratioP2
82940;SDS011;72715;48.396;-4.472;2023-12-07T00:00:59;22.08;;;5.20;;
82940;SDS011;72715;48.396;-4.472;2023-12-07T00:03:25;23.55;;;3.70;;
82940;SDS011;72715;48.396;-4.472;2023-12-07T00:05:50;10.48;;;4.07;;
82940;SDS011;72715;48.396;-4.472;2023-12-07T00:08:16;23.50;;;4.35;;
82940;SDS011;72715;48.396;-4.472;2023-12-07T00:10:41;18.88;;;4.68;;
82940;SDS011;72715;48.396;-4.472;2023-12-07T00:13:07;8.60;;;3.50;;
82940;SDS011;72715;48.396;-4.472;2023-12-07T00:15:32;14.88;;;4.63;;
82940;SDS011;72715;48.396;-4.472;2023-12-07T00:17:57;16.40;;;3.15;;
82940;SDS011;72715;48.396;-4.472;2023-12-07T00:20:25;24.63;;;3.22;;
82940;SDS011;72715;48.396;-4.472;2023-12-07T00:22:50;15.18;;;3.90;;
82940;SDS011;72715;48.396;-4.472;2023-12-07T00:25:16;11.88;;;2.72;;
82940;SDS011;72715;48.396;-4.472;2023-12-07T00:27:41;30.50;;;3.88;;
82940;SDS011;72715;48.396;-4.472;2023-12-07T00:30:06;12.68;;;4.05;;
82940;SDS011;72715;48.396;-4.472;2023-12-07T00:32:32;11.93;;;2.70;;
82940;SDS011;72715;48.396;-4.472;2023-12-07T00:34:57;14.90;;;3.17;;
82940;SDS011;72715;48.396;-4.472;2023-12-07T00:37:23;39.45;;;4.78;;
82940;SDS011;72715;48.396;-4.472;2023-12-07T00:39:48;7.35;;;3.45;;
82940;SDS011;72715;48.396;-4.472;2023-12-07T00:42:13;21.42;;;5.40;;
82940;SDS011;72715;48.396;-4.472;2023-12-07T00:44:39;13.48;;;2.53;;
82940;SDS011;72715;48.396;-4.472;2023-12-07T00:47:06;24.27;;;3.35;;
82940;SDS011;72715;48.396;-4.472;2023-12-07T00:49:31;15.70;;;5.07;;
82940;SDS011;72715;48.396;-4.472;2023-12-07T00:51:57;22.42;;;2.50;;
82940;SDS011;72715;48.396;-4.472;2023-12-07T00:54:22;5.55;;;1.90;;
82940;SDS011;72715;48.396;-4.472;2023-12-07T00:56:48;25.08;;;5.15;;
82940;SDS011;72715;48.396;-4.472;2023-12-07T00:59:13;11.77;;;2.92;;
82940;SDS011;72715;48.396;-4.472;2023-12-07T01:01:38;30.60;;;4.90;;
82940;SDS011;72715;48.396;-4.472;2023-12-07T01:04:04;5.65;;;2.28;;
82940;SDS011;72715;48.396;-4.472;2023-12-07T01:06:30;12.18;;;3.28;;
82940;SDS011;72715;48.396;-4.472;2023-12-07T01:08:56;3.78;;;1.90;;
82940;SDS011;72715;48.396;-4.472;2023-12-07T01:11:22;13.27;;;3.17;;
82940;SDS011;72715;48.396;-4.472;2023-12-07T01:13:47;13.85;;;2.58;;
82940;SDS011;72715;48.396;-4.472;2023-12-07T01:16:12;35.88;;;5.55;;
82940;SDS011;72715;48.396;-4.472;2023-12-07T01:18:38;18.42;;;4.13;;
82940;SDS011;72715;48.396;-4.472;2023-12-07T01:21:03;38.30;;;4.35;;
82940;SDS011;72715;48.396;-4.472;2023-12-07T01:23:29;11.40;;;2.33;;
82940;SDS011;72715;48.396;-4.472;2023-12-07T01:25:54;24.90;;;3.47;;
82940;SDS011;72715;48.396;-4.472;2023-12-07T01:28:19;4.22;;;2.97;;
82940;SDS011;72715;48.396;-4.472;2023-12-07T01:30:45;10.05;;;3.80;;
82940;SDS011;72715;48.396;-4.472;2023-12-07T01:33:10;10.32;;;2.08;;
82940;SDS011;72715;48.396;-4.472;2023-12-07T01:35:35;12.77;;;2.60;;
82940;SDS011;72715;48.396;-4.472;2023-12-07T01:38:01;8.70;;;2.53;;
82940;SDS011;72715;48.396;-4.472;2023-12-07T01:40:26;12.20;;;2.83;;
82940;SDS011;72715;48.396;-4.472;2023-12-07T01:42:52;12.30;;;2.28;;
82940;SDS011;72715;48.396;-4.472;2023-12-07T01:45:18;15.75;;;3.13;;
82940;SDS011;72715;48.396;-4.472;2023-12-07T01:47:44;4.63;;;2.63;;
82940;SDS011;72715;48.396;-4.472;2023-12-07T01:50:10;8.40;;;1.70;;
82940;SDS011;72715;48.396;-4.472;2023-12-07T01:52:36;7.93;;;2.42;;
82940;SDS011;72715;48.396;-4.472;2023-12-07T01:55:03;11.32;;;2.67;;
82940;SDS011;72715;48.396;-4.472;2023-12-07T01:57:30;10.50;;;2.42;;
82940;SDS011;72715;48.396;-4.472;2023-12-07T01:59:55;12.07;;;2.13;;
82940;SDS011;72715;48.396;-4.472;2023-12-07T02:02:21;11.05;;;2.42;;
82940;SDS011;72715;48.396;-4.472;2023-12-07T02:04:46;9.27;;;1.70;;
82940;SDS011;72715;48.396;-4.472;2023-12-07T02:07:12;15.93;;;2.75;;
82940;SDS011;72715;48.396;-4.472;2023-12-07T02:09:37;6.03;;;2.63;;
82940;SDS011;72715;48.396;-4.472;2023-12-07T02:12:02;5.88;;;1.80;;
82940;SDS011;72715;48.396;-4.472;2023-12-07T02:14:28;38.15;;;5.18;;
82940;SDS011;72715;48.396;-4.472;2023-12-07T02:16:56;17.77;;;3.60;;
82940;SDS011;72715;48.396;-4.472;2023-12-07T02:19:47;15.57;;;3.00;;
82940;SDS011;72715;48.396;-4.472;2023-12-07T02:22:27;18.58;;;3.38;;
82940;SDS011;72715;48.396;-4.472;2023-12-07T02:25:03;121.10;;;14.50;;
82940;SDS011;72715;48.396;-4.472;2023-12-07T02:30:05;24.08;;;2.92;;
82940;SDS011;72715;48.396;-4.472;2023-12-07T02:32:32;16.67;;;2.70;;
82940;SDS011;72715;48.396;-4.472;2023-12-07T02:34:57;47.10;;;4.38;;
82940;SDS011;72715;48.396;-4.472;2023-12-07T02:37:23;15.93;;;2.78;;
82940;SDS011;72715;48.396;-4.472;2023-12-07T02:39:52;4.55;;;2.25;;
82940;SDS011;72715;48.396;-4.472;2023-12-07T02:42:18;7.05;;;2.00;;
82940;SDS011;72715;48.396;-4.472;2023-12-07T02:44:44;22.02;;;5.35;;
82940;SDS011;72715;48.396;-4.472;2023-12-07T02:47:10;4.32;;;1.85;;
82940;SDS011;72715;48.396;-4.472;2023-12-07T02:49:36;18.10;;;2.72;;
82940;SDS011;72715;48.396;-4.472;2023-12-07T02:52:01;11.18;;;2.08;;
82940;SDS011;72715;48.396;-4.472;2023-12-07T02:54:26;4.25;;;1.75;;
82940;SDS011;72715;48.396;-4.472;2023-12-07T02:56:52;13.40;;;2.72;;
82940;SDS011;72715;48.396;-4.472;2023-12-07T02:59:17;8.48;;;2.08;;
82940;SDS011;72715;48.396;-4.472;2023-12-07T03:01:42;16.88;;;3.22;;
82940;SDS011;72715;48.396;-4.472;2023-12-07T03:04:08;8.93;;;3.33;;
82940;SDS011;72715;48.396;-4.472;2023-12-07T03:06:33;5.20;;;1.77;;
82940;SDS011;72715;48.396;-4.472;2023-12-07T03:08:59;15.35;;;3.05;;
82940;SDS011;72715;48.396;-4.472;2023-12-07T03:11:24;6.15;;;1.58;;
82940;SDS011;72715;48.396;-4.472;2023-12-07T03:13:49;10.57;;;2.50;;
82940;SDS011;72715;48.396;-4.472;2023-12-07T03:16:15;7.03;;;1.70;;
82940;SDS011;72715;48.396;-4.472;2023-12-07T03:18:40;6.88;;;2.25;;
82940;SDS011;72715;48.396;-4.472;2023-12-07T03:21:05;33.22;;;3.65;;
82940;SDS011;72715;48.396;-4.472;2023-12-07T03:23:31;5.28;;;1.88;;
82940;SDS011;72715;48.396;-4.472;2023-12-07T03:25:56;11.18;;;3.10;;
82940;SDS011;72715;48.396;-4.472;2023-12-07T03:28:22;3.15;;;1.80;;
82940;SDS011;72715;48.396;-4.472;2023-12-07T03:30:47;7.03;;;2.00;;
82940;SDS011;72715;48.396;-4.472;2023-12-07T03:33:13;16.80;;;3.05;;
82940;SDS011;72715;48.396;-4.472;2023-12-07T03:35:38;21.35;;;3.28;;
82940;SDS011;72715;48.396;-4.472;2023-12-07T03:38:03;2.85;;;1.27;;
82940;SDS011;72715;48.396;-4.472;2023-12-07T03:40:29;29.38;;;2.40;;
82940;SDS011;72715;48.396;-4.472;2023-12-07T03:42:54;4.20;;;1.33;;
82940;SDS011;72715;48.396;-4.472;2023-12-07T03:45:19;5.97;;;2.05;;
82940;SDS011;72715;48.396;-4.472;2023-12-07T03:47:45;13.70;;;2.20;;
82940;SDS011;72715;48.396;-4.472;2023-12-07T03:50:10;6.35;;;2.28;;
82940;SDS011;72715;48.396;-4.472;2023-12-07T03:52:36;9.25;;;2.83;;
82940;SDS011;72715;48.396;-4.472;2023-12-07T03:55:01;17.38;;;3.63;;
82940;SDS011;72715;48.396;-4.472;2023-12-07T03:57:26;9.95;;;2.67;;
82940;SDS011;72715;48.396;-4.472;2023-12-07T03:59:52;19.08;;;3.90;;
82940;SDS011;72715;48.396;-4.472;2023-12-07T04:02:18;11.25;;;2.95;;
82940;SDS011;72715;48.396;-4.472;2023-12-07T04:04:44;29.50;;;4.75;;
82940;SDS011;72715;48.396;-4.472;2023-12-07T04:07:09;15.27;;;4.38;;
82940;SDS011;72715;48.396;-4.472;2023-12-07T04:09:35;27.70;;;4.50;;
82940;SDS011;72715;48.396;-4.472;2023-12-07T04:12:00;13.48;;;4.07;;
82940;SDS011;72715;48.396;-4.472;2023-12-07T04:14:25;55.28;;;7.75;;
82940;SDS011;72715;48.396;-4.472;2023-12-07T04:16:51;7.72;;;2.55;;
82940;SDS011;72715;48.396;-4.472;2023-12-07T04:19:16;15.80;;;3.95;;
82940;SDS011;72715;48.396;-4.472;2023-12-07T04:21:41;20.35;;;5.22;;
82940;SDS011;72715;48.396;-4.472;2023-12-07T04:24:07;9.40;;;2.67;;
82940;SDS011;72715;48.396;-4.472;2023-12-07T04:26:32;9.32;;;3.85;;
82940;SDS011;72715;48.396;-4.472;2023-12-07T04:28:58;18.50;;;3.53;;
82940;SDS011;72715;48.396;-4.472;2023-12-07T04:31:23;14.82;;;4.68;;
82940;SDS011;72715;48.396;-4.472;2023-12-07T04:33:49;16.55;;;4.40;;
82940;SDS011;72715;48.396;-4.472;2023-12-07T04:36:14;30.70;;;6.05;;
82940;SDS011;72715;48.396;-4.472;2023-12-07T04:38:40;24.00;;;5.13;;
82940;SDS011;72715;48.396;-4.472;2023-12-07T04:41:05;34.85;;;3.85;;
82940;SDS011;72715;48.396;-4.472;2023-12-07T04:43:30;25.45;;;5.25;;
82940;SDS011;72715;48.396;-4.472;2023-12-07T04:45:56;28.58;;;6.05;;
82940;SDS011;72715;48.396;-4.472;2023-12-07T04:48:21;20.83;;;7.25;;
82940;SDS011;72715;48.396;-4.472;2023-12-07T04:50:46;37.22;;;5.82;;
82940;SDS011;72715;48.396;-4.472;2023-12-07T04:53:12;14.75;;;4.82;;
82940;SDS011;72715;48.396;-4.472;2023-12-07T04:55:37;45.00;;;7.50;;
82940;SDS011;72715;48.396;-4.472;2023-12-07T04:58:02;39.78;;;6.63;;
82940;SDS011;72715;48.396;-4.472;2023-12-07T05:00:28;54.53;;;5.40;;
82940;SDS011;72715;48.396;-4.472;2023-12-07T05:02:53;14.07;;;4.95;;
82940;SDS011;72715;48.396;-4.472;2023-12-07T05:05:18;30.85;;;4.43;;
82940;SDS011;72715;48.396;-4.472;2023-12-07T05:07:44;19.35;;;4.80;;
82940;SDS011;72715;48.396;-4.472;2023-12-07T05:10:09;16.73;;;5.47;;
82940;SDS011;72715;48.396;-4.472;2023-12-07T05:12:35;9.35;;;4.20;;
82940;SDS011;72715;48.396;-4.472;2023-12-07T05:15:00;16.88;;;3.92;;
82940;SDS011;72715;48.396;-4.472;2023-12-07T05:17:27;35.33;;;5.90;;
82940;SDS011;72715;48.396;-4.472;2023-12-07T05:19:53;46.78;;;9.38;;
82940;SDS011;72715;48.396;-4.472;2023-12-07T05:22:18;18.98;;;5.13;;
82940;SDS011;72715;48.396;-4.472;2023-12-07T05:24:43;31.58;;;5.95;;
82940;SDS011;72715;48.396;-4.472;2023-12-07T05:27:09;14.35;;;4.40;;
82940;SDS011;72715;48.396;-4.472;2023-12-07T05:29:34;15.93;;;4.53;;
82940;SDS011;72715;48.396;-4.472;2023-12-07T05:32:00;14.27;;;5.57;;
82940;SDS011;72715;48.396;-4.472;2023-12-07T05:34:25;15.45;;;5.55;;
82940;SDS011;72715;48.396;-4.472;2023-12-07T05:36:50;16.08;;;4.78;;
82940;SDS011;72715;48.396;-4.472;2023-12-07T05:39:16;15.32;;;3.95;;
82940;SDS011;72715;48.396;-4.472;2023-12-07T05:41:42;6.55;;;3.17;;
82940;SDS011;72715;48.396;-4.472;2023-12-07T05:44:08;9.23;;;2.30;;
82940;SDS011;72715;48.396;-4.472;2023-12-07T05:46:35;15.73;;;3.67;;
82940;SDS011;72715;48.396;-4.472;2023-12-07T05:49:00;11.93;;;2.65;;
82940;SDS011;72715;48.396;-4.472;2023-12-07T05:51:26;11.00;;;4.13;;
82940;SDS011;72715;48.396;-4.472;2023-12-07T05:53:51;11.23;;;3.95;;
82940;SDS011;72715;48.396;-4.472;2023-12-07T05:56:20;16.52;;;3.58;;
82940;SDS011;72715;48.396;-4.472;2023-12-07T05:58:46;19.60;;;4.32;;
82940;SDS011;72715;48.396;-4.472;2023-12-07T06:01:12;9.50;;;2.45;;
82940;SDS011;72715;48.396;-4.472;2023-12-07T06:03:37;22.50;;;4.65;;
82940;SDS011;72715;48.396;-4.472;2023-12-07T06:06:03;23.02;;;4.65;;
82940;SDS011;72715;48.396;-4.472;2023-12-07T06:08:29;11.50;;;3.00;;
82940;SDS011;72715;48.396;-4.472;2023-12-07T06:10:54;8.38;;;2.95;;
82940;SDS011;72715;48.396;-4.472;2023-12-07T06:13:19;7.00;;;2.05;;
82940;SDS011;72715;48.396;-4.472;2023-12-07T06:15:45;5.78;;;2.47;;
82940;SDS011;72715;48.396;-4.472;2023-12-07T06:18:10;9.15;;;2.17;;
82940;SDS011;72715;48.396;-4.472;2023-12-07T06:20:36;39.40;;;4.60;;
82940;SDS011;72715;48.396;-4.472;2023-12-07T06:23:02;6.60;;;2.42;;
82940;SDS011;72715;48.396;-4.472;2023-12-07T06:25:27;5.13;;;1.73;;
82940;SDS011;72715;48.396;-4.472;2023-12-07T06:27:53;4.45;;;1.77;;
82940;SDS011;72715;48.396;-4.472;2023-12-07T06:30:18;4.82;;;2.15;;
82940;SDS011;72715;48.396;-4.472;2023-12-07T06:32:44;10.73;;;1.90;;
82940;SDS011;72715;48.396;-4.472;2023-12-07T06:35:11;3.88;;;1.58;;
82940;SDS011;72715;48.396;-4.472;2023-12-07T06:37:37;11.73;;;1.83;;
82940;SDS011;72715;48.396;-4.472;2023-12-07T06:40:02;22.15;;;2.50;;
82940;SDS011;72715;48.396;-4.472;2023-12-07T06:42:29;6.00;;;2.03;;
82940;SDS011;72715;48.396;-4.472;2023-12-07T06:44:55;6.32;;;1.30;;
82940;SDS011;72715;48.396;-4.472;2023-12-07T06:47:20;3.90;;;1.05;;
82940;SDS011;72715;48.396;-4.472;2023-12-07T06:49:45;7.63;;;1.52;;
82940;SDS011;72715;48.396;-4.472;2023-12-07T06:52:11;10.32;;;2.80;;
82940;SDS011;72715;48.396;-4.472;2023-12-07T06:54:37;5.05;;;1.10;;
82940;SDS011;72715;48.396;-4.472;2023-12-07T06:57:03;4.25;;;1.63;;
82940;SDS011;72715;48.396;-4.472;2023-12-07T06:59:29;3.45;;;1.13;;
82940;SDS011;72715;48.396;-4.472;2023-12-07T07:01:54;4.60;;;3.95;;
82940;SDS011;72715;48.396;-4.472;2023-12-07T07:04:20;4.78;;;1.80;;
82940;SDS011;72715;48.396;-4.472;2023-12-07T07:06:45;4.93;;;1.65;;
82940;SDS011;72715;48.396;-4.472;2023-12-07T07:09:11;26.92;;;2.38;;
82940;SDS011;72715;48.396;-4.472;2023-12-07T07:11:37;9.98;;;3.80;;
82940;SDS011;72715;48.396;-4.472;2023-12-07T07:14:03;4.13;;;1.48;;
82940;SDS011;72715;48.396;-4.472;2023-12-07T07:16:28;3.17;;;1.52;;
82940;SDS011;72715;48.396;-4.472;2023-12-07T07:18:54;1.58;;;1.10;;
82940;SDS011;72715;48.396;-4.472;2023-12-07T07:21:19;13.05;;;2.85;;
82940;SDS011;72715;48.396;-4.472;2023-12-07T07:23:45;6.65;;;2.67;;
82940;SDS011;72715;48.396;-4.472;2023-12-07T07:26:10;1.65;;;1.10;;
82940;SDS011;72715;48.396;-4.472;2023-12-07T07:28:36;4.13;;;1.13;;
82940;SDS011;72715;48.396;-4.472;2023-12-07T07:31:02;11.60;;;0.98;;
82940;SDS011;72715;48.396;-4.472;2023-12-07T07:33:27;8.18;;;2.15;;
82940;SDS011;72715;48.396;-4.472;2023-12-07T07:35:53;8.55;;;2.35;;
82940;SDS011;72715;48.396;-4.472;2023-12-07T07:38:18;21.40;;;3.25;;
82940;SDS011;72715;48.396;-4.472;2023-12-07T07:40:44;5.93;;;2.00;;
82940;SDS011;72715;48.396;-4.472;2023-12-07T07:43:10;25.10;;;2.60;;
82940;SDS011;72715;48.396;-4.472;2023-12-07T07:45:36;5.35;;;0.98;;
82940;SDS011;72715;48.396;-4.472;2023-12-07T07:48:01;7.35;;;2.30;;
82940;SDS011;72715;48.396;-4.472;2023-12-07T07:50:26;2.40;;;0.60;;
82940;SDS011;72715;48.396;-4.472;2023-12-07T07:52:54;3.08;;;1.38;;
82940;SDS011;72715;48.396;-4.472;2023-12-07T07:55:19;8.30;;;1.77;;
82940;SDS011;72715;48.396;-4.472;2023-12-07T07:57:45;10.32;;;1.15;;
82940;SDS011;72715;48.396;-4.472;2023-12-07T08:00:10;3.88;;;1.30;;
82940;SDS011;72715;48.396;-4.472;2023-12-07T08:02:38;26.88;;;2.45;;
82940;SDS011;72715;48.396;-4.472;2023-12-07T08:05:03;20.23;;;1.95;;
82940;SDS011;72715;48.396;-4.472;2023-12-07T08:07:29;9.57;;;2.17;;
82940;SDS011;72715;48.396;-4.472;2023-12-07T08:09:54;11.00;;;2.67;;
82940;SDS011;72715;48.396;-4.472;2023-12-07T08:12:20;20.35;;;3.33;;
82940;SDS011;72715;48.396;-4.472;2023-12-07T08:14:47;7.18;;;2.80;;
82940;SDS011;72715;48.396;-4.472;2023-12-07T08:17:13;25.45;;;3.45;;
82940;SDS011;72715;48.396;-4.472;2023-12-07T08:19:41;12.05;;;1.73;;
82940;SDS011;72715;48.396;-4.472;2023-12-07T08:22:09;6.35;;;1.17;;
82940;SDS011;72715;48.396;-4.472;2023-12-07T08:24:35;7.80;;;1.70;;
82940;SDS011;72715;48.396;-4.472;2023-12-07T08:27:02;2.67;;;0.85;;
82940;SDS011;72715;48.396;-4.472;2023-12-07T08:29:28;3.10;;;0.98;;
82940;SDS011;72715;48.396;-4.472;2023-12-07T08:31:54;11.30;;;2.30;;
82940;SDS011;72715;48.396;-4.472;2023-12-07T08:34:19;9.80;;;1.55;;
82940;SDS011;72715;48.396;-4.472;2023-12-07T08:36:45;6.57;;;1.27;;
82940;SDS011;72715;48.396;-4.472;2023-12-07T08:39:11;3.90;;;1.48;;
82940;SDS011;72715;48.396;-4.472;2023-12-07T08:41:36;15.88;;;2.65;;
82940;SDS011;72715;48.396;-4.472;2023-12-07T08:44:02;7.40;;;1.50;;
82940;SDS011;72715;48.396;-4.472;2023-12-07T08:46:27;10.48;;;2.88;;
82940;SDS011;72715;48.396;-4.472;2023-12-07T08:48:53;6.72;;;2.15;;
82940;SDS011;72715;48.396;-4.472;2023-12-07T08:51:18;9.95;;;2.03;;
82940;SDS011;72715;48.396;-4.472;2023-12-07T08:53:44;8.43;;;3.15;;
82940;SDS011;72715;48.396;-4.472;2023-12-07T08:56:10;19.58;;;4.45;;
82940;SDS011;72715;48.396;-4.472;2023-12-07T08:58:35;32.42;;;6.25;;
82940;SDS011;72715;48.396;-4.472;2023-12-07T09:01:00;24.33;;;3.78;;
82940;SDS011;72715;48.396;-4.472;2023-12-07T09:03:26;10.88;;;2.15;;
82940;SDS011;72715;48.396;-4.472;2023-12-07T09:05:56;16.80;;;2.33;;
82940;SDS011;72715;48.396;-4.472;2023-12-07T09:08:25;4.32;;;1.40;;
82940;SDS011;72715;48.396;-4.472;2023-12-07T09:10:50;1.83;;;1.23;;
82940;SDS011;72715;48.396;-4.472;2023-12-07T09:13:17;3.72;;;1.35;;
82940;SDS011;72715;48.396;-4.472;2023-12-07T09:15:43;7.93;;;2.55;;
82940;SDS011;72715;48.396;-4.472;2023-12-07T09:18:08;9.30;;;2.30;;
82940;SDS011;72715;48.396;-4.472;2023-12-07T09:20:35;9.60;;;2.13;;
82940;SDS011;72715;48.396;-4.472;2023-12-07T09:23:02;10.77;;;2.90;;
82940;SDS011;72715;48.396;-4.472;2023-12-07T09:25:28;4.00;;;2.17;;
82940;SDS011;72715;48.396;-4.472;2023-12-07T09:27:55;6.68;;;2.75;;
82940;SDS011;72715;48.396;-4.472;2023-12-07T09:30:21;10.48;;;1.88;;
82940;SDS011;72715;48.396;-4.472;2023-12-07T09:32:46;7.32;;;2.22;;
82940;SDS011;72715;48.396;-4.472;2023-12-07T09:35:12;21.02;;;2.47;;
82940;SDS011;72715;48.396;-4.472;2023-12-07T09:37:44;9.52;;;2.30;;
82940;SDS011;72715;48.396;-4.472;2023-12-07T09:40:14;5.50;;;2.58;;
82940;SDS011;72715;48.396;-4.472;2023-12-07T09:42:41;3.63;;;1.42;;
82940;SDS011;72715;48.396;-4.472;2023-12-07T09:45:07;12.38;;;1.92;;
82940;SDS011;72715;48.396;-4.472;2023-12-07T09:47:33;6.50;;;1.98;;
82940;SDS011;72715;48.396;-4.472;2023-12-07T09:49:59;5.20;;;2.05;;
82940;SDS011;72715;48.396;-4.472;2023-12-07T09:52:25;1.58;;;0.90;;
82940;SDS011;72715;48.396;-4.472;2023-12-07T09:54:50;7.55;;;2.72;;
82940;SDS011;72715;48.396;-4.472;2023-12-07T09:57:16;9.27;;;1.73;;
82940;SDS011;72715;48.396;-4.472;2023-12-07T09:59:42;4.60;;;0.85;;
82940;SDS011;72715;48.396;-4.472;2023-12-07T10:02:07;8.55;;;1.90;;
82940;SDS011;72715;48.396;-4.472;2023-12-07T10:04:33;6.90;;;1.73;;
82940;SDS011;72715;48.396;-4.472;2023-12-07T10:06:58;3.63;;;0.98;;
82940;SDS011;72715;48.396;-4.472;2023-12-07T10:09:23;5.22;;;1.17;;
82940;SDS011;72715;48.396;-4.472;2023-12-07T10:11:49;9.45;;;2.05;;
82940;SDS011;72715;48.396;-4.472;2023-12-07T10:14:16;5.95;;;1.30;;
82940;SDS011;72715;48.396;-4.472;2023-12-07T10:16:52;14.00;;;3.30;;
82940;SDS011;72715;48.396;-4.472;2023-12-07T10:19:20;1.05;;;0.70;;
82940;SDS011;72715;48.396;-4.472;2023-12-07T10:21:53;2.97;;;1.15;;
82940;SDS011;72715;48.396;-4.472;2023-12-07T10:24:22;2.60;;;0.85;;
82940;SDS011;72715;48.396;-4.472;2023-12-07T10:26:49;4.90;;;0.98;;
82940;SDS011;72715;48.396;-4.472;2023-12-07T10:29:18;24.63;;;4.32;;
82940;SDS011;72715;48.396;-4.472;2023-12-07T10:31:44;10.60;;;1.52;;
82940;SDS011;72715;48.396;-4.472;2023-12-07T10:34:11;9.50;;;2.70;;
82940;SDS011;72715;48.396;-4.472;2023-12-07T10:36:37;6.15;;;1.55;;
82940;SDS011;72715;48.396;-4.472;2023-12-07T10:39:03;4.85;;;1.55;;
82940;SDS011;72715;48.396;-4.472;2023-12-07T10:41:31;6.22;;;1.13;;
82940;SDS011;72715;48.396;-4.472;2023-12-07T10:44:02;10.30;;;2.38;;
82940;SDS011;72715;48.396;-4.472;2023-12-07T10:46:29;4.32;;;1.10;;
82940;SDS011;72715;48.396;-4.472;2023-12-07T10:48:55;18.77;;;2.80;;
82940;SDS011;72715;48.396;-4.472;2023-12-07T10:51:34;3.85;;;1.05;;
82940;SDS011;72715;48.396;-4.472;2023-12-07T10:54:04;20.55;;;3.10;;
82940;SDS011;72715;48.396;-4.472;2023-12-07T10:56:35;10.45;;;1.52;;
82940;SDS011;72715;48.396;-4.472;2023-12-07T10:59:05;9.40;;;1.63;;
82940;SDS011;72715;48.396;-4.472;2023-12-07T11:01:31;2.85;;;0.90;;
82940;SDS011;72715;48.396;-4.472;2023-12-07T11:03:57;18.90;;;1.33;;
82940;SDS011;72715;48.396;-4.472;2023-12-07T11:06:23;6.95;;;1.85;;
82940;SDS011;72715;48.396;-4.472;2023-12-07T11:08:56;3.25;;;0.93;;
82940;SDS011;72715;48.396;-4.472;2023-12-07T11:13:53;2.03;;;1.17;;
82940;SDS011;72715;48.396;-4.472;2023-12-07T11:16:37;1.73;;;1.00;;
82940;SDS011;72715;48.396;-4.472;2023-12-07T11:19:03;25.23;;;1.95;;
82940;SDS011;72715;48.396;-4.472;2023-12-07T11:21:29;7.30;;;2.30;;
82940;SDS011;72715;48.396;-4.472;2023-12-07T11:23:55;0.73;;;0.38;;
82940;SDS011;72715;48.396;-4.472;2023-12-07T11:26:24;6.18;;;1.55;;
82940;SDS011;72715;48.396;-4.472;2023-12-07T11:28:50;4.75;;;1.52;;
82940;SDS011;72715;48.396;-4.472;2023-12-07T11:31:16;6.25;;;1.85;;
82940;SDS011;72715;48.396;-4.472;2023-12-07T11:33:41;2.97;;;1.15;;
82940;SDS011;72715;48.396;-4.472;2023-12-07T11:36:08;4.85;;;1.50;;
82940;SDS011;72715;48.396;-4.472;2023-12-07T11:38:39;12.85;;;2.72;;
82940;SDS011;72715;48.396;-4.472;2023-12-07T11:41:43;9.90;;;3.90;;
82940;SDS011;72715;48.396;-4.472;2023-12-07T11:44:09;5.35;;;1.38;;
82940;SDS011;72715;48.396;-4.472;2023-12-07T11:46:36;15.20;;;2.65;;
82940;SDS011;72715;48.396;-4.472;2023-12-07T11:49:02;13.93;;;3.67;;
82940;SDS011;72715;48.396;-4.472;2023-12-07T11:51:28;56.53;;;8.55;;
82940;SDS011;72715;48.396;-4.472;2023-12-07T11:53:54;24.25;;;3.10;;
82940;SDS011;72715;48.396;-4.472;2023-12-07T11:56:19;16.23;;;3.70;;
82940;SDS011;72715;48.396;-4.472;2023-12-07T11:58:46;27.52;;;4.95;;
82940;SDS011;72715;48.396;-4.472;2023-12-07T12:01:12;47.10;;;8.05;;
82940;SDS011;72715;48.396;-4.472;2023-12-07T12:03:37;31.75;;;4.63;;
82940;SDS011;72715;48.396;-4.472;2023-12-07T12:06:03;17.13;;;2.72;;
82940;SDS011;72715;48.396;-4.472;2023-12-07T12:08:30;49.88;;;5.10;;
82940;SDS011;72715;48.396;-4.472;2023-12-07T12:10:56;11.13;;;1.40;;
82940;SDS011;72715;48.396;-4.472;2023-12-07T12:13:31;20.65;;;3.45;;
82940;SDS011;72715;48.396;-4.472;2023-12-07T12:16:00;8.40;;;2.47;;
82940;SDS011;72715;48.396;-4.472;2023-12-07T12:18:26;4.10;;;1.75;;
82940;SDS011;72715;48.396;-4.472;2023-12-07T12:20:52;9.50;;;2.20;;
82940;SDS011;72715;48.396;-4.472;2023-12-07T12:23:18;7.40;;;2.35;;
82940;SDS011;72715;48.396;-4.472;2023-12-07T12:25:44;7.65;;;2.75;;
82940;SDS011;72715;48.396;-4.472;2023-12-07T12:28:10;25.45;;;5.25;;
82940;SDS011;72715;48.396;-4.472;2023-12-07T12:30:36;10.38;;;2.42;;
82940;SDS011;72715;48.396;-4.472;2023-12-07T12:33:02;12.57;;;3.85;;
82940;SDS011;72715;48.396;-4.472;2023-12-07T12:35:27;5.43;;;2.30;;
82940;SDS011;72715;48.396;-4.472;2023-12-07T12:37:53;22.45;;;3.78;;
82940;SDS011;72715;48.396;-4.472;2023-12-07T12:40:20;10.57;;;3.45;;
82940;SDS011;72715;48.396;-4.472;2023-12-07T12:42:47;114.30;;;16.05;;
82940;SDS011;72715;48.396;-4.472;2023-12-07T12:45:14;255.07;;;33.80;;
82940;SDS011;72715;48.396;-4.472;2023-12-07T12:47:40;850.03;;;158.07;;
82940;SDS011;72715;48.396;-4.472;2023-12-07T12:50:06;595.00;;;100.53;;
82940;SDS011;72715;48.396;-4.472;2023-12-07T12:52:32;636.47;;;97.38;;
82940;SDS011;72715;48.396;-4.472;2023-12-07T12:54:58;291.95;;;45.17;;
82940;SDS011;72715;48.396;-4.472;2023-12-07T12:57:23;33.90;;;7.72;;
82940;SDS011;72715;48.396;-4.472;2023-12-07T12:59:52;10.45;;;4.55;;
82940;SDS011;72715;48.396;-4.472;2023-12-07T13:02:18;28.98;;;6.80;;
82940;SDS011;72715;48.396;-4.472;2023-12-07T13:04:44;37.63;;;6.72;;
82940;SDS011;72715;48.396;-4.472;2023-12-07T13:07:11;37.50;;;8.65;;
82940;SDS011;72715;48.396;-4.472;2023-12-07T13:09:40;16.08;;;5.13;;
82940;SDS011;72715;48.396;-4.472;2023-12-07T13:12:05;33.15;;;6.97;;
82940;SDS011;72715;48.396;-4.472;2023-12-07T13:14:31;19.17;;;8.13;;
82940;SDS011;72715;48.396;-4.472;2023-12-07T13:17:00;24.17;;;7.75;;
82940;SDS011;72715;48.396;-4.472;2023-12-07T13:19:26;33.95;;;7.50;;
82940;SDS011;72715;48.396;-4.472;2023-12-07T13:21:51;28.35;;;7.72;;
82940;SDS011;72715;48.396;-4.472;2023-12-07T13:24:17;42.22;;;10.55;;
82940;SDS011;72715;48.396;-4.472;2023-12-07T13:26:43;46.60;;;9.02;;
82940;SDS011;72715;48.396;-4.472;2023-12-07T13:29:09;54.90;;;12.15;;
82940;SDS011;72715;48.396;-4.472;2023-12-07T13:31:35;56.83;;;12.35;;
82940;SDS011;72715;48.396;-4.472;2023-12-07T13:34:01;43.08;;;13.35;;
82940;SDS011;72715;48.396;-4.472;2023-12-07T13:36:26;102.35;;;16.50;;
82940;SDS011;72715;48.396;-4.472;2023-12-07T13:38:54;53.78;;;12.23;;
82940;SDS011;72715;48.396;-4.472;2023-12-07T13:41:22;56.80;;;12.52;;
82940;SDS011;72715;48.396;-4.472;2023-12-07T13:43:48;50.70;;;11.23;;
82940;SDS011;72715;48.396;-4.472;2023-12-07T13:46:14;95.82;;;13.95;;
82940;SDS011;72715;48.396;-4.472;2023-12-07T13:48:41;65.18;;;14.07;;
82940;SDS011;72715;48.396;-4.472;2023-12-07T13:51:07;62.70;;;16.50;;
82940;SDS011;72715;48.396;-4.472;2023-12-07T13:53:32;61.65;;;15.70;;
82940;SDS011;72715;48.396;-4.472;2023-12-07T13:55:59;52.90;;;11.63;;
82940;SDS011;72715;48.396;-4.472;2023-12-07T13:58:24;56.15;;;13.50;;
82940;SDS011;72715;48.396;-4.472;2023-12-07T14:00:49;46.55;;;10.65;;
82940;SDS011;72715;48.396;-4.472;2023-12-07T14:03:15;46.65;;;11.50;;
82940;SDS011;72715;48.396;-4.472;2023-12-07T14:05:41;87.75;;;15.43;;
82940;SDS011;72715;48.396;-4.472;2023-12-07T14:08:06;69.55;;;18.25;;
82940;SDS011;72715;48.396;-4.472;2023-12-07T14:10:32;80.95;;;15.55;;
82940;SDS011;72715;48.396;-4.472;2023-12-07T14:12:59;100.50;;;17.52;;
82940;SDS011;72715;48.396;-4.472;2023-12-07T14:15:25;62.08;;;12.85;;
82940;SDS011;72715;48.396;-4.472;2023-12-07T14:17:50;61.70;;;13.20;;
82940;SDS011;72715;48.396;-4.472;2023-12-07T14:20:15;47.97;;;12.32;;
82940;SDS011;72715;48.396;-4.472;2023-12-07T14:22:41;61.88;;;14.82;;
82940;SDS011;72715;48.396;-4.472;2023-12-07T14:25:06;63.40;;;18.45;;